createdAt,value
2017-11-10T00:01:18.153Z,134.20
2017-11-10T00:03:21.573Z,133.70
2017-11-10T00:05:24.246Z,120.83
2017-11-10T00:07:26.930Z,122.20
2017-11-10T00:09:29.710Z,122.17
2017-11-10T00:11:32.489Z,109.40
2017-11-10T00:13:35.185Z,107.30
2017-11-10T00:15:37.835Z,98.40
2017-11-10T00:17:46.524Z,143.53
2017-11-10T00:19:49.985Z,117.23
2017-11-10T00:21:52.648Z,119.57
2017-11-10T00:23:55.342Z,101.67
2017-11-10T00:25:58.028Z,121.80
2017-11-10T00:28:00.673Z,107.33
2017-11-10T00:30:03.351Z,113.17
2017-11-10T00:32:06.044Z,122.20
2017-11-10T00:34:08.697Z,110.80
2017-11-10T00:36:11.385Z,117.67
2017-11-10T00:38:14.099Z,118.77
2017-11-10T00:40:16.739Z,123.70
2017-11-10T00:42:19.392Z,122.30
2017-11-10T00:44:22.075Z,115.27
2017-11-10T00:46:24.746Z,128.70
2017-11-10T00:48:27.411Z,123.40
2017-11-10T00:50:30.113Z,130.53
2017-11-10T00:52:32.994Z,130.03
2017-11-10T00:54:35.649Z,114.03
2017-11-10T00:56:38.344Z,133.50
2017-11-10T00:58:40.998Z,132.33
2017-11-10T01:00:43.700Z,125.00
2017-11-10T01:02:46.481Z,102.07
2017-11-10T01:04:49.133Z,120.43
2017-11-10T01:06:51.790Z,105.83
2017-11-10T01:08:54.477Z,98.87
2017-11-10T01:10:57.285Z,102.13
2017-11-10T01:12:59.939Z,110.90
2017-11-10T01:15:02.643Z,120.13
2017-11-10T01:17:05.309Z,95.13
2017-11-10T01:19:07.959Z,101.93
2017-11-10T01:21:13.493Z,87.07
2017-11-10T01:23:16.160Z,95.30
2017-11-10T01:25:19.600Z,81.17
2017-11-10T01:27:22.268Z,75.33
2017-11-10T01:29:24.911Z,88.10
2017-11-10T01:31:27.611Z,76.53
2017-11-10T01:33:30.293Z,74.57
2017-11-10T01:35:32.956Z,87.20
2017-11-10T01:37:35.638Z,79.20
2017-11-10T01:39:38.303Z,85.33
2017-11-10T01:41:40.968Z,88.17
2017-11-10T01:43:43.650Z,81.87
2017-11-10T01:45:46.331Z,85.10
2017-11-10T01:47:49.013Z,84.37
2017-11-10T01:49:54.583Z,85.40
2017-11-10T01:51:57.245Z,87.90
2017-11-10T01:53:59.912Z,95.20
2017-11-10T01:56:02.622Z,84.00
2017-11-10T01:58:05.288Z,87.50
2017-11-10T02:00:07.990Z,75.40
2017-11-10T02:02:10.709Z,78.53
2017-11-10T02:04:13.394Z,85.63
2017-11-10T02:06:16.050Z,97.70
2017-11-10T02:08:18.722Z,94.40
2017-11-10T02:10:22.147Z,98.50
2017-11-10T02:12:24.801Z,126.93
2017-11-10T02:14:27.504Z,118.73
2017-11-10T02:16:30.187Z,117.97
2017-11-10T02:18:32.878Z,125.97
2017-11-10T02:20:35.598Z,119.83
2017-11-10T02:22:39.043Z,115.60
2017-11-10T02:24:41.734Z,118.03
2017-11-10T02:26:44.487Z,128.93
2017-11-10T02:28:47.186Z,116.83
2017-11-10T02:30:49.953Z,104.97
2017-11-10T02:32:52.694Z,123.60
2017-11-10T02:34:56.381Z,127.00
2017-11-10T02:36:59.074Z,109.90
2017-11-10T02:39:01.787Z,108.70
2017-11-10T02:41:04.454Z,119.77
2017-11-10T02:43:07.149Z,115.03
2017-11-10T02:45:12.712Z,124.37
2017-11-10T02:47:16.168Z,120.97
2017-11-10T02:49:18.849Z,118.17
2017-11-10T02:51:21.538Z,123.13
2017-11-10T02:53:24.248Z,118.87
2017-11-10T02:55:27.695Z,108.97
2017-11-10T02:57:30.405Z,116.03
2017-11-10T02:59:33.954Z,140.10
2017-11-10T03:01:36.631Z,122.50
2017-11-10T03:03:39.325Z,133.00
2017-11-10T03:05:42.088Z,134.10
2017-11-10T03:07:44.763Z,116.23
2017-11-10T03:09:47.439Z,117.00
2017-11-10T03:11:50.140Z,112.00
2017-11-10T03:13:52.845Z,134.53
2017-11-10T03:15:56.360Z,143.10
2017-11-10T03:17:59.051Z,122.47
2017-11-10T03:20:01.732Z,121.17
2017-11-10T03:22:04.455Z,130.10
2017-11-10T03:24:07.181Z,119.13
2017-11-10T03:26:09.834Z,124.60
2017-11-10T03:28:13.306Z,127.03
2017-11-10T03:30:15.991Z,113.63
2017-11-10T03:32:19.448Z,101.07
2017-11-10T03:34:22.160Z,124.53
2017-11-10T03:36:25.614Z,116.37
2017-11-10T03:38:28.373Z,119.30
2017-11-10T03:40:31.050Z,108.23
2017-11-10T03:42:33.706Z,111.60
2017-11-10T03:44:36.386Z,95.63
2017-11-10T03:46:39.098Z,95.73
2017-11-10T03:48:41.852Z,100.80
2017-11-10T03:50:44.503Z,79.33
2017-11-10T03:52:47.220Z,87.07
2017-11-10T03:54:49.897Z,80.13
2017-11-10T03:56:52.589Z,87.80
2017-11-10T03:58:55.289Z,91.40
2017-11-10T04:00:57.981Z,94.77
2017-11-10T04:03:01.445Z,89.60
2017-11-10T04:05:04.168Z,92.97
2017-11-10T04:07:06.907Z,94.73
2017-11-10T04:09:09.584Z,94.20
2017-11-10T04:11:12.282Z,115.90
2017-11-10T04:13:15.920Z,113.70
2017-11-10T04:15:18.646Z,106.60
2017-11-10T04:17:21.785Z,114.23
2017-11-10T04:19:24.476Z,115.70
2017-11-10T04:21:27.302Z,114.60
2017-11-10T04:23:30.754Z,109.33
2017-11-10T04:25:33.442Z,110.23
2017-11-10T04:27:36.153Z,124.17
2017-11-10T04:29:39.797Z,122.83
2017-11-10T04:31:42.459Z,125.63
2017-11-10T04:33:45.187Z,123.30
2017-11-10T04:35:48.031Z,126.40
2017-11-10T04:37:50.690Z,119.33
2017-11-10T04:39:53.411Z,119.20
2017-11-10T04:41:56.092Z,118.40
2017-11-10T04:43:58.770Z,115.10
2017-11-10T04:46:01.475Z,126.57
2017-11-10T04:48:04.913Z,118.73
2017-11-10T04:52:16.902Z,109.03
2017-11-10T04:54:19.606Z,118.97
2017-11-10T04:56:22.288Z,114.10
2017-11-10T04:58:25.027Z,108.17
2017-11-10T05:00:27.757Z,108.23
2017-11-10T05:02:30.406Z,97.30
2017-11-10T05:04:33.151Z,99.90
2017-11-10T05:06:35.842Z,99.73
2017-11-10T05:08:38.543Z,101.80
2017-11-10T05:10:41.263Z,93.03
2017-11-10T05:12:44.710Z,101.97
2017-11-10T05:14:47.415Z,92.30
2017-11-10T05:16:50.887Z,90.73
2017-11-10T05:18:53.670Z,88.33
2017-11-10T05:21:07.456Z,83.03
2017-11-10T05:23:10.178Z,89.13
2017-11-10T05:25:12.869Z,84.90
2017-11-10T05:27:15.557Z,80.10
2017-11-10T05:29:18.253Z,75.63
2017-11-10T05:31:21.701Z,83.40
2017-11-10T05:33:24.407Z,72.80
2017-11-10T05:35:27.132Z,89.17
2017-11-10T05:37:29.857Z,69.20
2017-11-10T05:39:32.541Z,74.40
2017-11-10T05:41:36.433Z,75.00
2017-11-10T05:43:39.202Z,75.97
2017-11-10T05:45:41.993Z,80.90
2017-11-10T05:47:46.470Z,78.20
2017-11-10T05:49:49.235Z,83.63
2017-11-10T05:51:51.927Z,77.93
2017-11-10T05:53:54.659Z,80.33
2017-11-10T05:55:58.084Z,71.67
2017-11-10T05:58:00.739Z,79.57
2017-11-10T06:00:04.254Z,85.20
2017-11-10T06:02:06.986Z,69.23
2017-11-10T06:04:11.782Z,67.97
2017-11-10T06:06:14.516Z,73.07
2017-11-10T06:08:18.045Z,68.73
2017-11-10T06:10:20.817Z,65.83
2017-11-10T06:12:23.738Z,70.07
2017-11-10T06:14:26.413Z,58.10
2017-11-10T06:16:29.085Z,67.30
2017-11-10T06:18:31.778Z,62.60
2017-11-10T06:20:34.430Z,64.07
2017-11-10T06:22:37.132Z,64.67
2017-11-10T06:24:39.869Z,56.23
2017-11-10T06:26:42.531Z,59.00
2017-11-10T06:28:45.229Z,59.77
2017-11-10T06:30:48.965Z,53.50
2017-11-10T06:32:51.648Z,55.53
2017-11-10T06:34:55.135Z,65.43
2017-11-10T06:36:57.883Z,60.67
2017-11-10T06:39:00.639Z,66.47
2017-11-10T06:41:03.323Z,60.47
2017-11-10T06:43:06.192Z,56.73
2017-11-10T06:45:08.883Z,59.90
2017-11-10T06:47:11.575Z,54.73
2017-11-10T06:49:14.255Z,63.27
2017-11-10T06:51:16.919Z,71.13
2017-11-10T06:53:19.572Z,56.27
2017-11-10T06:55:22.305Z,62.70
2017-11-10T06:57:24.992Z,56.20
2017-11-10T06:59:28.417Z,61.30
2017-11-10T07:01:31.253Z,57.87
2017-11-10T07:03:33.990Z,53.13
2017-11-10T07:05:36.800Z,55.63
2017-11-10T07:07:39.481Z,52.40
2017-11-10T07:09:42.144Z,50.93
2017-11-10T07:11:44.838Z,52.40
2017-11-10T07:13:48.322Z,51.90
2017-11-10T07:15:50.978Z,59.93
2017-11-10T07:17:53.734Z,53.97
2017-11-10T07:19:56.415Z,55.33
2017-11-10T07:21:59.197Z,57.93
2017-11-10T07:24:01.888Z,52.73
2017-11-10T07:26:04.639Z,61.13
2017-11-10T07:28:07.321Z,59.63
2017-11-10T07:30:10.013Z,67.10
2017-11-10T07:32:12.670Z,69.30
2017-11-10T07:34:15.573Z,61.27
2017-11-10T07:36:18.343Z,65.00
2017-11-10T07:38:21.112Z,58.00
2017-11-10T07:40:23.810Z,62.23
2017-11-10T07:42:26.482Z,64.27
2017-11-10T07:44:29.141Z,65.77
2017-11-10T07:46:31.832Z,68.67
2017-11-10T07:48:34.490Z,60.03
2017-11-10T07:50:37.154Z,60.30
2017-11-10T07:52:39.845Z,60.93
2017-11-10T07:54:42.533Z,64.07
2017-11-10T07:56:45.211Z,58.30
2017-11-10T07:58:47.908Z,60.43
2017-11-10T08:00:50.985Z,61.07
2017-11-10T08:02:55.345Z,62.93
2017-11-10T08:04:58.796Z,61.43
2017-11-10T08:07:01.454Z,59.03
2017-11-10T08:09:04.219Z,52.70
2017-11-10T08:11:06.994Z,56.60
2017-11-10T08:13:10.034Z,55.17
2017-11-10T08:15:13.494Z,58.80
2017-11-10T08:17:16.141Z,49.70
2017-11-10T08:19:18.833Z,57.03
2017-11-10T08:21:21.592Z,59.80
2017-11-10T08:23:24.421Z,54.90
2017-11-10T08:25:27.092Z,47.27
2017-11-10T08:27:29.813Z,53.93
2017-11-10T08:29:33.296Z,51.73
2017-11-10T08:31:36.802Z,52.90
2017-11-10T08:33:40.265Z,51.00
2017-11-10T08:35:43.022Z,53.00
2017-11-10T08:37:45.786Z,45.13
2017-11-10T08:39:48.669Z,47.40
2017-11-10T08:41:51.408Z,48.20
2017-11-10T08:43:54.822Z,48.70
2017-11-10T08:45:57.564Z,50.03
2017-11-10T08:48:00.224Z,46.40
2017-11-10T08:50:02.886Z,45.80
2017-11-10T08:52:05.583Z,38.83
2017-11-10T08:54:08.249Z,47.03
2017-11-10T08:56:10.905Z,44.07
2017-11-10T08:58:13.613Z,44.93
2017-11-10T09:00:16.276Z,47.50
2017-11-10T09:02:18.946Z,43.23
2017-11-10T09:04:21.642Z,41.60
2017-11-10T09:06:24.294Z,39.40
2017-11-10T09:08:26.995Z,41.37
2017-11-10T09:10:29.755Z,34.10
2017-11-10T09:12:32.632Z,40.87
2017-11-10T09:14:35.320Z,36.27
2017-11-10T09:16:38.047Z,41.57
2017-11-10T09:18:40.710Z,37.07
2017-11-10T09:20:43.428Z,33.90
2017-11-10T09:22:46.168Z,32.23
2017-11-10T09:24:50.285Z,33.07
2017-11-10T09:26:53.046Z,31.03
2017-11-10T09:29:01.565Z,26.33
2017-11-10T09:44:37.209Z,23.30
2017-11-10T09:46:45.498Z,23.00
2017-11-10T09:48:54.557Z,21.70
2017-11-10T09:51:03.060Z,29.77
2017-11-10T09:53:11.429Z,24.03
2017-11-10T09:58:03.640Z,24.50
2017-11-10T10:00:09.152Z,22.43
2017-11-10T10:02:29.330Z,30.87
2017-11-10T10:04:34.512Z,27.80
2017-11-10T10:09:21.984Z,27.23
2017-11-10T10:11:27.360Z,24.83
2017-11-10T10:13:46.941Z,24.40
2017-11-10T10:15:55.206Z,24.30
2017-11-10T10:20:39.878Z,27.13
2017-11-10T10:22:43.212Z,29.03
2017-11-10T10:24:45.906Z,25.93
2017-11-10T10:26:48.614Z,28.87
2017-11-10T10:28:51.280Z,27.17
2017-11-10T10:30:53.971Z,26.83
2017-11-10T10:32:56.631Z,28.37
2017-11-10T10:34:59.490Z,32.63
2017-11-10T10:37:02.248Z,33.67
2017-11-10T10:39:04.956Z,31.13
2017-11-10T10:41:07.679Z,29.27
2017-11-10T10:43:11.126Z,32.27
2017-11-10T10:45:13.846Z,29.73
2017-11-10T10:47:17.315Z,33.47
2017-11-10T10:49:19.990Z,33.20
2017-11-10T10:51:22.666Z,26.30
2017-11-10T10:53:25.385Z,31.43
2017-11-10T10:55:28.880Z,31.80
2017-11-10T10:57:31.730Z,31.87
2017-11-10T10:59:34.467Z,28.73
2017-11-10T11:01:37.138Z,29.80
2017-11-10T11:03:39.830Z,31.67
2017-11-10T11:05:42.512Z,34.67
2017-11-10T11:07:45.204Z,35.83
2017-11-10T11:09:47.972Z,26.40
2017-11-10T11:11:50.659Z,30.20
2017-11-10T11:13:53.432Z,35.03
2017-11-10T11:15:56.163Z,33.03
2017-11-10T11:17:58.843Z,34.67
2017-11-10T11:20:01.592Z,33.40
2017-11-10T11:22:04.291Z,30.17
2017-11-10T11:24:07.776Z,28.03
2017-11-10T11:26:11.209Z,31.13
2017-11-10T11:28:13.886Z,28.97
2017-11-10T11:30:16.570Z,29.47
2017-11-10T11:32:19.259Z,32.17
2017-11-10T11:34:21.963Z,21.87
2017-11-10T11:36:24.678Z,22.00
2017-11-10T11:38:27.785Z,15.80
2017-11-10T11:40:30.584Z,25.70
2017-11-10T11:42:33.266Z,15.20
2017-11-10T11:44:36.095Z,13.80
2017-11-10T11:46:38.790Z,19.53
2017-11-10T11:48:41.487Z,13.00
2017-11-10T11:50:45.195Z,18.23
2017-11-10T11:52:47.917Z,19.43
2017-11-10T11:54:50.638Z,24.90
2017-11-10T11:56:53.334Z,18.80
2017-11-10T11:58:56.024Z,18.37
2017-11-10T12:00:59.565Z,11.37
2017-11-10T12:03:03.019Z,13.50
2017-11-10T12:05:06.555Z,18.13
2017-11-10T12:07:09.433Z,17.80
2017-11-10T12:09:12.159Z,14.50
2017-11-10T12:11:14.913Z,18.53
2017-11-10T12:13:17.575Z,14.30
2017-11-10T12:15:20.286Z,13.80
2017-11-10T12:17:23.181Z,11.90
2017-11-10T12:19:25.855Z,16.73
2017-11-10T12:21:28.568Z,12.63
2017-11-10T12:23:31.307Z,17.57
2017-11-10T12:25:34.011Z,11.97
2017-11-10T12:27:36.710Z,16.00
2017-11-10T12:29:39.433Z,17.73
2017-11-10T12:31:42.151Z,17.37
2017-11-10T12:33:44.941Z,18.63
2017-11-10T12:35:47.823Z,14.93
2017-11-10T12:37:50.511Z,22.00
2017-11-10T12:39:53.196Z,24.00
2017-11-10T12:41:55.941Z,16.50
2017-11-10T12:43:58.653Z,13.87
2017-11-10T12:46:01.338Z,14.53
2017-11-10T12:48:04.046Z,17.63
2017-11-10T12:50:07.604Z,18.83
2017-11-10T12:52:10.302Z,14.63
2017-11-10T12:54:13.930Z,20.40
2017-11-10T12:56:17.692Z,17.93
2017-11-10T12:58:20.385Z,18.47
2017-11-10T13:00:23.119Z,18.63
2017-11-10T13:02:25.772Z,16.30
2017-11-10T13:04:28.486Z,18.17
2017-11-10T13:06:31.172Z,19.40
2017-11-10T13:08:33.854Z,19.93
2017-11-10T13:10:36.598Z,15.10
2017-11-10T13:12:39.286Z,14.07
2017-11-10T13:14:42.254Z,16.90
2017-11-10T13:16:44.954Z,16.23
2017-11-10T13:18:47.637Z,17.07
2017-11-10T13:20:50.520Z,20.30
2017-11-10T13:22:53.243Z,18.03
2017-11-10T13:24:56.680Z,37.63
2017-11-10T13:26:59.459Z,21.10
2017-11-10T13:29:02.130Z,18.43
2017-11-10T13:31:04.782Z,18.20
2017-11-10T13:33:07.559Z,14.77
2017-11-10T13:35:10.251Z,21.00
2017-11-10T13:37:12.923Z,15.90
2017-11-10T13:39:15.656Z,18.00
2017-11-10T13:41:19.129Z,23.77
2017-11-10T13:43:21.787Z,19.10
2017-11-10T13:45:24.523Z,18.20
2017-11-10T13:47:27.942Z,18.10
2017-11-10T13:49:30.618Z,15.67
2017-11-10T13:51:33.304Z,16.90
2017-11-10T13:53:35.972Z,23.47
2017-11-10T13:55:38.656Z,16.10
2017-11-10T13:57:41.311Z,17.57
2017-11-10T13:59:43.997Z,20.83
2017-11-10T14:01:46.709Z,28.00
2017-11-10T14:03:49.504Z,15.23
2017-11-10T14:05:52.968Z,17.40
2017-11-10T14:07:55.645Z,13.07
2017-11-10T14:09:58.303Z,20.67
2017-11-10T14:12:01.036Z,24.50
2017-11-10T14:14:04.581Z,21.57
2017-11-10T14:16:07.279Z,15.70
2017-11-10T14:18:10.069Z,20.17
2017-11-10T14:20:12.757Z,11.60
2017-11-10T14:22:15.454Z,14.37
2017-11-10T14:24:18.899Z,17.83
2017-11-10T14:26:22.320Z,13.87
2017-11-10T14:28:24.996Z,20.10
2017-11-10T14:30:27.649Z,15.10
2017-11-10T14:32:30.304Z,19.10
2017-11-10T14:34:33.038Z,13.17
2017-11-10T14:36:36.481Z,15.37
2017-11-10T14:38:39.148Z,12.90
2017-11-10T14:40:41.875Z,13.13
2017-11-10T14:42:44.588Z,9.50
2017-11-10T14:44:48.275Z,12.00
2017-11-10T14:46:51.722Z,17.97
2017-11-10T14:48:54.381Z,10.63
2017-11-10T14:50:57.058Z,15.07
2017-11-10T14:52:59.921Z,10.57
2017-11-10T14:55:02.607Z,14.03
2017-11-10T14:57:05.281Z,13.80
2017-11-10T14:59:07.935Z,29.53
2017-11-10T15:01:10.587Z,10.77
2017-11-10T15:03:14.038Z,12.33
2017-11-10T15:05:17.312Z,16.33
2017-11-10T15:07:19.999Z,13.03
2017-11-10T15:09:22.692Z,12.93
2017-11-10T15:11:25.373Z,14.40
2017-11-10T15:13:28.221Z,20.63
2017-11-10T15:15:31.690Z,9.13
2017-11-10T15:17:35.107Z,14.53
2017-11-10T15:19:37.798Z,20.67
2017-11-10T15:21:40.607Z,11.03
2017-11-10T15:23:43.292Z,20.67
2017-11-10T15:25:46.110Z,18.37
2017-11-10T15:27:48.925Z,15.60
2017-11-10T15:29:51.588Z,20.33
2017-11-10T15:31:54.336Z,25.20
2017-11-10T15:33:57.025Z,17.57
2017-11-10T15:35:59.806Z,21.63
2017-11-10T15:38:02.523Z,24.87
2017-11-10T15:40:05.365Z,26.00
2017-11-10T15:42:08.145Z,21.83
2017-11-10T15:44:10.984Z,24.67
2017-11-10T15:46:14.541Z,18.50
2017-11-10T15:48:17.307Z,20.63
2017-11-10T15:50:20.005Z,14.33
2017-11-10T15:52:22.688Z,14.20
2017-11-10T15:54:25.674Z,26.27
2017-11-10T15:56:29.330Z,45.00
2017-11-10T15:58:31.990Z,34.97
2017-11-10T16:00:34.667Z,27.17
2017-11-10T16:02:37.368Z,32.97
2017-11-10T16:04:40.042Z,13.20
2017-11-10T16:06:42.951Z,14.80
2017-11-10T16:08:45.613Z,20.67
2017-11-10T16:10:48.378Z,22.07
2017-11-10T16:12:51.148Z,17.90
2017-11-10T16:14:53.822Z,17.17
2017-11-10T16:16:56.470Z,18.70
2017-11-10T16:18:59.923Z,25.87
2017-11-10T16:21:02.650Z,25.13
2017-11-10T16:23:06.082Z,29.00
2017-11-10T16:25:08.911Z,17.63
2017-11-10T16:27:12.355Z,26.87
2017-11-10T16:29:15.024Z,17.07
2017-11-10T16:31:17.717Z,14.37
2017-11-10T16:33:20.363Z,17.90
2017-11-10T16:35:23.058Z,19.83
2017-11-10T16:37:25.929Z,78.70
2017-11-10T16:39:28.718Z,34.57
2017-11-10T16:41:31.482Z,22.40
2017-11-10T16:43:34.208Z,33.30
2017-11-10T16:45:36.877Z,118.27
2017-11-10T16:47:39.532Z,41.67
2017-11-10T16:49:42.205Z,20.10
2017-11-10T16:51:44.854Z,23.80
2017-11-10T16:53:47.513Z,27.70
2017-11-10T16:55:50.991Z,37.20
2017-11-10T16:57:53.764Z,21.57
2017-11-10T16:59:56.437Z,26.23
2017-11-10T17:01:59.493Z,21.80
2017-11-10T17:04:02.351Z,29.00
2017-11-10T17:06:05.031Z,25.23
2017-11-10T17:08:07.912Z,23.77
2017-11-10T17:10:10.609Z,34.97
2017-11-10T17:12:13.367Z,21.67
2017-11-10T17:14:16.043Z,24.87
2017-11-10T17:16:19.300Z,25.57
2017-11-10T17:18:22.734Z,24.17
2017-11-10T17:20:25.466Z,23.40
2017-11-10T17:22:28.879Z,18.97
2017-11-10T17:24:31.568Z,29.53
2017-11-10T17:26:34.273Z,21.40
2017-11-10T17:28:36.953Z,17.87
2017-11-10T17:30:39.761Z,11.27
2017-11-10T17:32:42.797Z,15.83
2017-11-10T17:34:45.598Z,21.63
2017-11-10T17:36:48.375Z,20.33
2017-11-10T17:38:51.331Z,30.93
2017-11-10T17:40:54.018Z,18.33
2017-11-10T17:42:56.688Z,19.83
2017-11-10T17:44:59.455Z,24.33
2017-11-10T17:47:02.141Z,16.60
2017-11-10T17:49:04.846Z,21.97
2017-11-10T17:51:07.543Z,29.67
2017-11-10T17:53:10.264Z,36.93
2017-11-10T17:55:12.988Z,20.80
2017-11-10T17:57:15.820Z,19.80
2017-11-10T17:59:18.487Z,21.07
2017-11-10T18:01:21.171Z,15.53
2017-11-10T18:03:23.980Z,22.93
2017-11-10T18:05:26.640Z,29.20
2017-11-10T18:07:29.339Z,25.90
2017-11-10T18:09:32.151Z,26.00
2017-11-10T18:13:44.681Z,24.20
2017-11-10T18:15:48.163Z,18.03
2017-11-10T18:17:51.625Z,23.60
2017-11-10T18:19:54.334Z,22.60
2017-11-10T18:21:57.790Z,23.63
2017-11-10T18:24:00.467Z,20.30
2017-11-10T18:26:03.166Z,24.70
2017-11-10T18:28:05.956Z,19.93
2017-11-10T18:30:08.661Z,20.23
2017-11-10T18:32:11.355Z,32.07
2017-11-10T18:34:14.056Z,33.80
2017-11-10T18:36:16.807Z,34.87
2017-11-10T18:38:19.513Z,58.67
2017-11-10T18:40:22.275Z,65.77
2017-11-10T18:42:25.058Z,54.50
2017-11-10T18:44:27.815Z,74.43
2017-11-10T18:46:30.621Z,65.67
2017-11-10T18:48:34.296Z,58.67
2017-11-10T18:50:37.086Z,58.13
2017-11-10T18:52:39.803Z,59.83
2017-11-10T18:54:45.489Z,61.23
2017-11-10T18:56:48.279Z,54.50
2017-11-10T18:58:50.991Z,66.40
2017-11-10T19:00:53.701Z,73.70
2017-11-10T19:02:56.391Z,77.13
2017-11-10T19:04:59.114Z,89.23
2017-11-10T19:07:01.836Z,91.00
2017-11-10T19:09:05.461Z,67.53
2017-11-10T19:11:08.241Z,63.80
2017-11-10T19:13:10.906Z,52.90
2017-11-10T19:15:13.584Z,37.87
2017-11-10T19:17:17.400Z,45.13
2017-11-10T19:19:20.846Z,44.30
2017-11-10T19:21:23.531Z,37.43
2017-11-10T19:23:27.021Z,30.50
2017-11-10T19:25:30.117Z,35.07
2017-11-10T19:27:33.053Z,44.77
2017-11-10T19:29:35.959Z,33.93
2017-11-10T19:31:38.630Z,44.23
2017-11-10T19:33:41.308Z,39.13
2017-11-10T19:35:44.172Z,42.70
2017-11-10T19:37:46.856Z,44.60
2017-11-10T19:40:01.477Z,27.93
2017-11-10T19:42:04.166Z,46.20
2017-11-10T19:44:06.836Z,40.13
2017-11-10T19:46:09.522Z,26.07
2017-11-10T19:48:12.210Z,30.13
2017-11-10T19:50:16.088Z,48.37
2017-11-10T19:52:18.774Z,35.33
2017-11-10T19:54:21.541Z,46.70
2017-11-10T19:56:24.215Z,34.37
2017-11-10T19:58:27.073Z,25.90
2017-11-10T20:00:29.839Z,30.73
2017-11-10T20:02:33.466Z,28.57
2017-11-10T20:04:36.222Z,29.60
2017-11-10T20:06:39.680Z,37.43
2017-11-10T20:08:43.173Z,35.77
2017-11-10T20:10:45.889Z,36.27
2017-11-10T20:12:49.351Z,29.67
2017-11-10T20:14:52.017Z,30.13
2017-11-10T20:16:54.859Z,25.87
2017-11-10T20:18:57.710Z,28.93
2017-11-10T20:21:00.355Z,22.90
2017-11-10T20:23:03.506Z,24.30
2017-11-10T20:25:06.206Z,27.53
2017-11-10T20:27:09.455Z,27.53
2017-11-10T20:29:12.352Z,27.93
2017-11-10T20:31:16.498Z,22.33
2017-11-10T20:33:19.460Z,25.93
2017-11-10T20:35:22.312Z,18.90
2017-11-10T20:37:26.497Z,21.57
2017-11-10T20:39:29.461Z,26.30
2017-11-10T20:41:32.118Z,29.53
2017-11-10T20:43:34.808Z,35.17
2017-11-10T20:45:37.476Z,29.57
2017-11-10T20:47:40.167Z,26.77
2017-11-10T20:49:42.857Z,17.87
2017-11-10T20:51:45.717Z,29.10
2017-11-10T20:53:49.518Z,23.50
2017-11-10T20:55:57.452Z,21.13
2017-11-10T20:58:00.930Z,19.63
2017-11-10T21:00:03.678Z,25.63
2017-11-10T21:02:06.334Z,19.60
2017-11-10T21:04:09.779Z,27.10
2017-11-10T21:06:12.565Z,17.53
2017-11-10T21:08:15.741Z,28.03
2017-11-10T21:10:19.376Z,21.50
2017-11-10T21:12:22.304Z,36.37
2017-11-10T21:14:25.844Z,32.53
2017-11-10T21:16:28.777Z,26.13
2017-11-10T21:18:31.585Z,24.93
2017-11-10T21:20:34.351Z,27.07
2017-11-10T21:22:37.050Z,27.93
2017-11-10T21:24:39.809Z,29.73
2017-11-10T21:26:42.587Z,24.00
2017-11-10T21:28:45.310Z,34.03
2017-11-10T21:30:48.782Z,37.73
2017-11-10T21:32:51.451Z,35.60
2017-11-10T21:34:54.344Z,39.53
2017-11-10T21:36:57.070Z,30.63
2017-11-10T21:38:59.940Z,30.10
2017-11-10T21:41:03.799Z,35.87
2017-11-10T21:43:06.496Z,30.87
2017-11-10T21:45:09.949Z,38.60
2017-11-10T21:47:12.613Z,28.97
2017-11-10T21:49:15.334Z,36.50
2017-11-10T21:51:18.449Z,25.70
2017-11-10T21:53:22.054Z,20.87
2017-11-10T21:55:24.756Z,30.63
2017-11-10T21:57:27.541Z,24.40
2017-11-10T21:59:30.212Z,16.23
2017-11-10T22:01:32.892Z,19.43
2017-11-10T22:03:35.545Z,19.83
2017-11-10T22:05:38.223Z,23.50
2017-11-10T22:07:40.931Z,22.40
2017-11-10T22:09:43.601Z,18.53
2017-11-10T22:11:46.323Z,19.03
2017-11-10T22:13:49.977Z,16.33
2017-11-10T22:15:52.640Z,19.97
2017-11-10T22:17:55.517Z,23.37
2017-11-10T22:19:58.201Z,82.23
2017-11-10T22:22:00.887Z,141.47
2017-11-10T22:24:03.584Z,44.43
2017-11-10T22:26:06.300Z,46.13
2017-11-10T22:28:08.961Z,93.37
2017-11-10T22:30:12.428Z,42.00
2017-11-10T22:32:15.128Z,32.40
2017-11-10T22:34:17.784Z,34.63
2017-11-10T22:36:20.467Z,33.80
2017-11-10T22:38:23.166Z,41.00
2017-11-10T22:40:26.590Z,33.53
2017-11-10T22:42:29.388Z,32.10
2017-11-10T22:44:32.062Z,31.73
2017-11-10T22:46:34.710Z,27.30
2017-11-10T22:48:37.397Z,27.07
2017-11-10T22:50:40.199Z,41.90
2017-11-10T22:52:42.965Z,28.70
2017-11-10T22:54:45.651Z,36.80
2017-11-10T22:56:48.559Z,34.53
2017-11-10T22:58:51.237Z,26.80
2017-11-10T23:00:53.922Z,28.73
2017-11-10T23:02:56.615Z,19.77
2017-11-10T23:05:00.035Z,28.27
2017-11-10T23:07:02.714Z,28.17
2017-11-10T23:09:05.499Z,22.33
2017-11-10T23:11:08.175Z,21.27
2017-11-10T23:13:10.845Z,25.70
2017-11-10T23:15:13.565Z,30.13
2017-11-10T23:17:16.211Z,17.20
2017-11-10T23:19:18.981Z,28.33
2017-11-10T23:21:21.658Z,22.50
2017-11-10T23:23:24.312Z,21.03
2017-11-10T23:25:26.996Z,24.80
2017-11-10T23:27:29.678Z,27.90
2017-11-10T23:29:32.584Z,29.20
2017-11-10T23:31:37.370Z,37.33
2017-11-10T23:33:40.052Z,34.50
2017-11-10T23:35:42.710Z,24.73
2017-11-10T23:37:46.130Z,27.37
2017-11-10T23:39:48.833Z,21.33
2017-11-10T23:41:51.481Z,26.07
2017-11-10T23:43:54.135Z,20.63
2017-11-10T23:45:57.566Z,28.77
2017-11-10T23:48:00.233Z,23.83
2017-11-10T23:50:02.909Z,32.67
2017-11-10T23:52:05.619Z,24.40
2017-11-10T23:54:09.073Z,29.90
2017-11-10T23:56:11.725Z,23.13
2017-11-10T23:58:15.184Z,25.10
